Time;durP1;ratioP1;P1;durP2;ratioP2;P2;SDS_P1;SDS_P2;PMS_P1;PMS_P2;Temp;Humidity;BMP_temperature;BMP_pressure;BME280_temperature;BME280_humidity;BME280_pressure;Samples;Min_cycle;Max_cycle;Signal;HPM_P1;HPM_P2
2023/04/06 00:00:30;;;;;;;10.37;6.47;;;;;-1.30;96526.00;;;;8348420;28;20192;-75
2023/04/06 00:04:33;;;;;;;12.63;6.33;;;;;-1.40;96527.00;;;;8346527;28;20308;-75
2023/04/06 00:08:36;;;;;;;11.57;5.87;;;;;-1.40;96519.00;;;;8352331;28;20219;-75
2023/04/06 00:12:45;;;;;;;11.40;5.73;;;;;-1.40;96528.00;;;;8345872;28;20200;-75
2023/04/06 00:16:50;;;;;;;10.20;5.57;;;;;-1.50;96524.00;;;;8347682;28;20200;-75
2023/04/06 00:20:54;;;;;;;9.27;5.03;;;;;-1.50;96516.00;;;;8334562;28;20262;-76
2023/04/06 00:24:57;;;;;;;9.90;5.83;;;;;-1.50;96519.00;;;;8342404;28;20197;-76
2023/04/06 00:29:04;;;;;;;8.90;6.00;;;;;-1.50;96529.00;;;;8349527;28;20573;-76
2023/04/06 00:33:10;;;;;;;9.80;6.17;;;;;-1.60;96512.00;;;;8349913;28;20208;-75
2023/04/06 00:37:13;;;;;;;12.43;5.97;;;;;-1.60;96511.00;;;;8347074;28;20251;-75
2023/04/06 00:41:22;;;;;;;13.83;6.83;;;;;-1.60;96516.00;;;;8348986;28;20219;-75
2023/04/06 00:45:30;;;;;;;12.50;6.97;;;;;-1.70;96519.00;;;;8346375;28;20230;-74
2023/04/06 00:49:34;;;;;;;11.07;6.63;;;;;-1.70;96520.00;;;;8349799;28;20206;-73
2023/04/06 00:53:37;;;;;;;10.97;5.63;;;;;-1.60;96513.00;;;;8342507;28;20565;-73
2023/04/06 00:57:43;;;;;;;9.47;5.90;;;;;-1.50;96512.00;;;;8353815;28;20351;-75
2023/04/06 01:01:52;;;;;;;12.90;6.20;;;;;-1.40;96515.00;;;;8341062;28;20563;-73
2023/04/06 01:05:58;;;;;;;11.80;6.27;;;;;-1.50;96508.00;;;;8356979;28;20231;-73
2023/04/06 01:10:04;;;;;;;14.90;5.83;;;;;-1.50;96501.00;;;;8354166;28;20224;-73
2023/04/06 01:14:08;;;;;;;7.83;5.70;;;;;-1.50;96501.00;;;;8356675;28;20279;-72
2023/04/06 01:18:12;;;;;;;11.13;5.77;;;;;-1.50;96496.00;;;;8348575;28;20288;-71
2023/04/06 01:22:19;;;;;;;9.67;5.97;;;;;-1.60;96491.00;;;;8347936;28;20252;-72
2023/04/06 01:26:22;;;;;;;9.40;5.63;;;;;-1.70;96495.00;;;;8350834;28;20232;-72
2023/04/06 01:30:26;;;;;;;10.23;6.47;;;;;-1.80;96501.00;;;;8357822;28;20789;-72
2023/04/06 01:34:32;;;;;;;9.97;5.70;;;;;-1.80;96497.00;;;;8357908;28;20672;-71
2023/04/06 01:38:38;;;;;;;9.60;5.70;;;;;-1.80;96495.00;;;;8335630;28;20727;-71
2023/04/06 01:42:42;;;;;;;12.00;6.30;;;;;-1.80;96499.00;;;;8353990;28;20231;-71
2023/04/06 01:46:46;;;;;;;10.73;6.47;;;;;-1.80;96490.00;;;;8357045;28;20200;-70
2023/04/06 01:50:52;;;;;;;15.70;6.30;;;;;-1.70;96493.00;;;;8356984;28;20250;-70
2023/04/06 01:54:59;;;;;;;14.53;5.80;;;;;-1.60;96494.00;;;;8351678;28;20231;-70
2023/04/06 01:59:04;;;;;;;10.53;5.90;;;;;-1.60;96489.00;;;;8346104;28;20204;-70
2023/04/06 02:03:10;;;;;;;12.67;6.23;;;;;-1.50;96496.00;;;;8333880;28;20236;-70
2023/04/06 02:07:13;;;;;;;11.33;7.17;;;;;-1.50;96491.00;;;;8342861;28;20197;-70
2023/04/06 02:11:25;;;;;;;12.30;6.03;;;;;-1.50;96484.00;;;;8346932;28;20652;-70
2023/04/06 02:15:31;;;;;;;9.90;5.50;;;;;-1.50;96477.00;;;;8349275;28;20389;-70
2023/04/06 02:19:34;;;;;;;8.17;5.87;;;;;-1.50;96477.00;;;;8343548;28;20208;-70
2023/04/06 02:23:37;;;;;;;11.50;5.87;;;;;-1.50;96487.00;;;;8346632;28;20228;-70
2023/04/06 02:27:41;;;;;;;11.00;6.57;;;;;-1.60;96477.00;;;;8344402;28;20566;-71
2023/04/06 02:31:49;;;;;;;13.10;7.20;;;;;-1.60;96477.00;;;;8327282;28;20698;-72
2023/04/06 02:35:53;;;;;;;11.00;6.40;;;;;-1.60;96484.00;;;;8352519;28;20196;-72
2023/04/06 02:39:59;;;;;;;9.10;5.33;;;;;-1.60;96474.00;;;;8349871;28;20644;-72
2023/04/06 02:44:07;;;;;;;12.30;6.20;;;;;-1.60;96478.00;;;;8353261;28;20692;-72
2023/04/06 02:48:17;;;;;;;11.53;5.53;;;;;-1.60;96470.00;;;;8357327;28;20201;-73
2023/04/06 02:52:22;;;;;;;9.60;5.53;;;;;-1.70;96473.00;;;;8354935;28;20296;-73
2023/04/06 02:56:27;;;;;;;8.97;5.97;;;;;-1.70;96472.00;;;;8355049;28;20288;-73
2023/04/06 03:04:43;;;;;;;9.60;5.93;;;;;-1.90;96466.00;;;;8244456;28;20238;-71
2023/04/06 03:08:47;;;;;;;11.77;6.30;;;;;-2.00;96466.00;;;;8259589;28;20206;-72
2023/04/06 03:12:50;;;;;;;8.33;5.63;;;;;-2.10;96473.00;;;;8263054;28;20655;-72
2023/04/06 03:16:52;;;;;;;12.93;5.80;;;;;-2.10;96472.00;;;;8264018;28;20628;-72
2023/04/06 03:21:00;;;;;;;13.70;6.03;;;;;-2.20;96468.00;;;;8258965;28;20238;-72
2023/04/06 03:25:08;;;;;;;11.13;6.10;;;;;-2.20;96474.00;;;;8261035;28;20299;-72
2023/04/06 03:29:11;;;;;;;10.20;5.53;;;;;-2.30;96473.00;;;;8260912;28;20315;-75
2023/04/06 03:33:16;;;;;;;12.77;6.87;;;;;-2.40;96485.00;;;;8263118;28;20203;-73
2023/04/06 03:37:21;;;;;;;15.10;6.17;;;;;-2.50;96478.00;;;;8258923;28;20194;-72
2023/04/06 03:41:26;;;;;;;11.20;5.70;;;;;-2.70;96480.00;;;;8267492;28;20575;-72
2023/04/06 03:45:29;;;;;;;11.60;6.70;;;;;-2.70;96491.00;;;;8268386;28;20226;-72
2023/04/06 03:49:37;;;;;;;10.13;6.43;;;;;-2.70;96487.00;;;;8261150;28;20230;-71
2023/04/06 03:53:43;;;;;;;11.87;5.77;;;;;-2.70;96491.00;;;;8256439;28;20213;-72
2023/04/06 03:57:46;;;;;;;9.57;6.33;;;;;-2.80;96500.00;;;;8263550;28;20199;-74
2023/04/06 04:01:56;;;;;;;14.10;6.30;;;;;-2.80;96508.00;;;;8250145;28;20231;-72
2023/04/06 04:05:59;;;;;;;11.63;6.07;;;;;-2.80;96505.00;;;;8249043;28;20692;-73
2023/04/06 04:10:07;;;;;;;9.80;5.83;;;;;-2.80;96510.00;;;;8246232;28;20202;-73
2023/04/06 04:14:16;;;;;;;15.70;6.10;;;;;-2.80;96507.00;;;;8229737;28;20233;-74
2023/04/06 04:18:25;;;;;;;13.43;6.20;;;;;-2.80;96515.00;;;;8236627;28;20214;-74
2023/04/06 04:22:28;;;;;;;12.33;6.83;;;;;-2.90;96510.00;;;;8238492;28;20227;-73
2023/04/06 04:26:35;;;;;;;10.47;6.13;;;;;-2.90;96502.00;;;;8244251;28;20622;-73
2023/04/06 04:30:42;;;;;;;10.43;6.17;;;;;-3.00;96504.00;;;;8220792;28;20195;-74
2023/04/06 04:34:46;;;;;;;11.10;6.40;;;;;-2.90;96497.00;;;;8241724;28;20241;-73
2023/04/06 04:38:51;;;;;;;17.83;6.73;;;;;-3.00;96509.00;;;;8240592;28;20214;-76
2023/04/06 04:42:56;;;;;;;15.97;7.27;;;;;-3.10;96512.00;;;;8242872;28;20250;-78
2023/04/06 04:47:05;;;;;;;13.03;6.63;;;;;-3.00;96502.00;;;;8256595;28;20235;-76
2023/04/06 04:51:08;;;;;;;14.97;6.33;;;;;-3.00;96508.00;;;;8251635;28;20206;-76
2023/04/06 04:55:18;;;;;;;12.67;6.87;;;;;-3.00;96515.00;;;;8247901;28;20237;-78
2023/04/06 04:59:25;;;;;;;12.97;6.43;;;;;-2.90;96506.00;;;;8247929;28;20273;-77
2023/04/06 05:03:28;;;;;;;14.97;6.63;;;;;-2.90;96508.00;;;;8250377;28;20579;-76
2023/04/06 05:07:31;;;;;;;18.60;7.07;;;;;-2.80;96511.00;;;;8228515;28;20222;-75
2023/04/06 05:11:35;;;;;;;18.67;7.63;;;;;-2.80;96516.00;;;;8245922;28;20210;-77
2023/04/06 05:15:40;;;;;;;13.30;7.43;;;;;-2.70;96521.00;;;;8237665;28;20883;-75
2023/04/06 05:19:45;;;;;;;13.87;7.20;;;;;-2.60;96517.00;;;;8238341;28;20218;-77
2023/04/06 05:23:48;;;;;;;16.27;7.20;;;;;-2.60;96520.00;;;;8244708;28;20219;-76
2023/04/06 05:27:53;;;;;;;13.50;6.97;;;;;-2.50;96523.00;;;;8228541;28;20211;-75
2023/04/06 05:31:57;;;;;;;12.67;6.97;;;;;-2.50;96521.00;;;;8249642;28;20211;-76
2023/04/06 05:36:01;;;;;;;17.77;8.03;;;;;-2.30;96519.00;;;;8258833;28;20234;-77
2023/04/06 05:40:05;;;;;;;14.50;7.60;;;;;-2.10;96520.00;;;;8253820;28;20199;-76
2023/04/06 05:44:10;;;;;;;22.87;7.20;;;;;-1.80;96523.00;;;;8250183;28;20246;-77
2023/04/06 05:48:20;;;;;;;14.30;7.97;;;;;-1.60;96522.00;;;;8261505;28;20201;-77
2023/04/06 05:52:27;;;;;;;14.63;7.40;;;;;-1.40;96524.00;;;;8260928;28;20201;-76
2023/04/06 05:56:31;;;;;;;14.77;7.23;;;;;-1.20;96531.00;;;;8236640;28;20618;-76
2023/04/06 06:00:34;;;;;;;13.97;8.17;;;;;-1.00;96525.00;;;;8255117;28;20211;-76
2023/04/06 06:04:39;;;;;;;20.10;8.50;;;;;-0.70;96535.00;;;;8239961;28;20234;-76
2023/04/06 06:08:42;;;;;;;12.53;6.80;;;;;-0.50;96532.00;;;;8252164;28;20206;-76
2023/04/06 06:12:47;;;;;;;12.20;7.30;;;;;-0.30;96534.00;;;;8249009;28;20233;-76
2023/04/06 06:16:50;;;;;;;12.57;7.40;;;;;-0.10;96536.00;;;;8250271;28;20243;-76
2023/04/06 06:20:57;;;;;;;15.97;8.83;;;;;0.20;96531.00;;;;8210081;28;20202;-76
2023/04/06 06:25:05;;;;;;;15.67;9.50;;;;;0.50;96542.00;;;;8251203;28;20239;-76
2023/04/06 06:29:08;;;;;;;17.67;8.97;;;;;0.80;96552.00;;;;8230799;28;20195;-75
2023/04/06 06:33:16;;;;;;;15.53;8.30;;;;;1.10;96550.00;;;;8225687;28;20669;-76
2023/04/06 06:37:20;;;;;;;16.30;8.63;;;;;1.30;96564.00;;;;8234860;28;20237;-76
2023/04/06 06:41:24;;;;;;;16.10;7.37;;;;;1.60;96552.00;;;;8233174;28;20194;-76
2023/04/06 06:45:29;;;;;;;14.83;6.73;;;;;1.90;96556.00;;;;8244602;28;20228;-75
2023/04/06 06:49:32;;;;;;;15.17;7.60;;;;;2.10;96564.00;;;;8260619;28;20361;-74
2023/04/06 06:53:36;;;;;;;14.03;7.23;;;;;2.30;96567.00;;;;8256589;28;20695;-74
2023/04/06 06:57:42;;;;;;;11.73;7.23;;;;;2.50;96567.00;;;;8251990;28;20541;-75
2023/04/06 07:01:57;;;;;;;14.70;6.83;;;;;2.70;96568.00;;;;8252596;28;20263;-74
2023/04/06 07:06:00;;;;;;;13.83;7.23;;;;;2.90;96563.00;;;;8248113;28;20252;-74
2023/04/06 07:10:08;;;;;;;12.17;6.30;;;;;3.10;96578.00;;;;8249732;28;20236;-75
2023/04/06 07:14:11;;;;;;;11.67;6.53;;;;;3.30;96563.00;;;;8258400;28;20234;-73
2023/04/06 07:18:14;;;;;;;11.70;7.27;;;;;3.60;96569.00;;;;8257244;28;20209;-74
2023/04/06 07:22:17;;;;;;;8.93;6.10;;;;;3.90;96563.00;;;;8251432;28;20285;-74
2023/04/06 07:26:26;;;;;;;10.00;5.87;;;;;4.20;96566.00;;;;8253395;28;20236;-73
2023/04/06 07:30:33;;;;;;;11.97;6.37;;;;;4.60;96570.00;;;;8250160;28;20653;-74
2023/04/06 07:34:38;;;;;;;16.87;6.57;;;;;5.00;96576.00;;;;8243595;28;20207;-76
2023/04/06 07:38:41;;;;;;;11.83;5.60;;;;;5.40;96589.00;;;;8242442;28;20820;-77
2023/04/06 07:42:46;;;;;;;9.03;5.87;;;;;5.90;96587.00;;;;8234981;28;20753;-76
2023/04/06 07:46:52;;;;;;;9.33;5.70;;;;;6.40;96587.00;;;;8246978;28;20225;-75
2023/04/06 07:51:04;;;;;;;9.77;6.00;;;;;6.90;96581.00;;;;8247871;28;20206;-75
2023/04/06 07:55:10;;;;;;;8.40;5.50;;;;;7.40;96581.00;;;;8241485;28;20202;-74
2023/04/06 07:59:16;;;;;;;11.10;5.63;;;;;7.80;96580.00;;;;8256786;28;20198;-72
2023/04/06 08:03:20;;;;;;;10.13;6.27;;;;;8.30;96583.00;;;;8245643;28;20306;-72
2023/04/06 08:07:24;;;;;;;8.83;5.53;;;;;8.70;96582.00;;;;8243119;28;20752;-72
2023/04/06 08:11:27;;;;;;;9.37;6.13;;;;;9.10;96583.00;;;;8252434;28;20265;-71
2023/04/06 08:15:34;;;;;;;9.97;5.90;;;;;9.70;96579.00;;;;8241432;28;20242;-70
2023/04/06 08:19:37;;;;;;;11.37;5.87;;;;;10.60;96586.00;;;;8245888;28;20211;-72
2023/04/06 08:23:45;;;;;;;11.90;6.50;;;;;11.40;96590.00;;;;8252041;28;20210;-70
2023/04/06 08:27:48;;;;;;;7.37;5.80;;;;;12.00;96587.00;;;;8247672;28;20203;-70
2023/04/06 08:31:53;;;;;;;14.87;6.63;;;;;12.40;96593.00;;;;8253510;28;20253;-69
2023/04/06 08:35:56;;;;;;;13.00;6.28;;;;;12.70;96594.00;;;;8239323;28;20250;-70
2023/04/06 08:39:59;;;;;;;10.50;5.50;;;;;12.90;96591.00;;;;8244247;28;20915;-69
2023/04/06 08:44:04;;;;;;;11.90;6.57;;;;;13.30;96593.00;;;;8252359;28;20645;-68
2023/04/06 08:48:10;;;;;;;9.20;5.60;;;;;13.30;96600.00;;;;8255475;28;20206;-68
2023/04/06 08:52:13;;;;;;;8.00;5.65;;;;;13.60;96588.00;;;;8246795;28;20194;-69
2023/04/06 08:56:19;;;;;;;8.60;5.90;;;;;13.80;96589.00;;;;8252866;28;20225;-71
2023/04/06 09:00:22;;;;;;;10.20;5.38;;;;;14.20;96594.00;;;;8254870;28;20306;-69
2023/04/06 09:04:29;;;;;;;9.93;6.07;;;;;14.20;96596.00;;;;8256732;28;20253;-68
2023/04/06 09:08:33;;;;;;;10.05;5.88;;;;;14.30;96595.00;;;;8259453;28;20207;-71
2023/04/06 09:12:39;;;;;;;15.30;6.65;;;;;14.30;96596.00;;;;8252595;28;20214;-71
2023/04/06 09:16:47;;;;;;;9.93;5.80;;;;;14.50;96589.00;;;;8260307;28;20203;-71
2023/04/06 09:20:59;;;;;;;12.48;5.85;;;;;14.70;96593.00;;;;8244135;28;20210;-71
2023/04/06 09:25:02;;;;;;;7.15;5.25;;;;;14.70;96593.00;;;;8232924;28;20428;-71
2023/04/06 09:29:06;;;;;;;9.70;6.18;;;;;14.70;96591.00;;;;8254646;28;20611;-73
2023/04/06 09:33:11;;;;;;;10.93;6.05;;;;;14.90;96595.00;;;;8243216;28;20661;-73
2023/04/06 09:37:18;;;;;;;8.25;5.25;;;;;15.10;96592.00;;;;8233311;28;20228;-73
2023/04/06 09:41:29;;;;;;;9.25;5.45;;;;;15.40;96588.00;;;;8238019;28;20285;-74
2023/04/06 09:45:32;;;;;;;7.70;5.32;;;;;15.50;96588.00;;;;8233151;28;20253;-74
2023/04/06 09:49:36;;;;;;;7.00;5.85;;;;;15.80;96585.00;;;;8234062;28;20238;-74
2023/04/06 09:53:45;;;;;;;8.38;5.78;;;;;16.10;96577.00;;;;8223118;28;20317;-74
2023/04/06 09:57:54;;;;;;;7.82;5.38;;;;;15.90;96585.00;;;;8247442;28;20213;-75
2023/04/06 10:01:59;;;;;;;8.05;5.72;;;;;15.90;96575.00;;;;8249410;28;20234;-74
2023/04/06 10:06:07;;;;;;;10.32;5.72;;;;;16.00;96583.00;;;;8247970;28;20261;-73
2023/04/06 10:10:15;;;;;;;9.00;5.88;;;;;15.10;96565.00;;;;8244436;28;20788;-73
2023/04/06 10:14:21;;;;;;;8.63;5.82;;;;;15.20;96564.00;;;;8250793;28;20214;-73
2023/04/06 10:18:27;;;;;;;8.35;5.80;;;;;15.10;96566.00;;;;8236666;28;20203;-73
2023/04/06 10:22:37;;;;;;;8.65;6.22;;;;;14.50;96556.00;;;;8251704;28;20524;-72
2023/04/06 10:26:41;;;;;;;8.45;5.55;;;;;15.10;96553.00;;;;8256536;28;20321;-72
2023/04/06 10:30:46;;;;;;;8.57;6.10;;;;;15.90;96554.00;;;;8248046;28;20199;-70
2023/04/06 10:34:52;;;;;;;8.65;5.05;;;;;16.70;96551.00;;;;8234601;28;20293;-71
2023/04/06 10:38:58;;;;;;;8.38;6.50;;;;;17.20;96557.00;;;;8240281;28;20202;-71
2023/04/06 10:43:11;;;;;;;10.95;6.00;;;;;17.40;96557.00;;;;8238998;28;20226;-72
2023/04/06 10:47:18;;;;;;;8.38;5.75;;;;;17.60;96554.00;;;;8250148;28;20235;-72
2023/04/06 10:51:27;;;;;;;7.40;5.72;;;;;17.50;96547.00;;;;8243830;28;20289;-73
2023/04/06 10:55:33;;;;;;;9.32;5.78;;;;;17.40;96548.00;;;;8255426;28;20649;-72
2023/04/06 10:59:43;;;;;;;9.82;6.35;;;;;17.50;96529.00;;;;8242418;28;20564;-72
2023/04/06 11:03:47;;;;;;;8.05;5.72;;;;;17.40;96533.00;;;;8242810;28;20262;-72
2023/04/06 11:07:51;;;;;;;6.70;6.00;;;;;16.30;96533.00;;;;8247090;28;20242;-71
2023/04/06 11:11:57;;;;;;;8.75;6.18;;;;;16.10;96532.00;;;;8243368;28;20237;-72
2023/04/06 11:16:04;;;;;;;11.45;5.95;;;;;16.30;96534.00;;;;8242574;28;20198;-72
2023/04/06 11:20:13;;;;;;;9.20;6.22;;;;;16.00;96533.00;;;;8250421;28;20195;-72
2023/04/06 11:24:17;;;;;;;8.45;5.93;;;;;16.30;96523.00;;;;8236608;28;20217;-72
2023/04/06 11:28:23;;;;;;;9.20;6.53;;;;;15.90;96511.00;;;;8250756;28;20227;-73
2023/04/06 11:32:30;;;;;;;9.45;5.97;;;;;15.90;96517.00;;;;8250093;28;20529;-75
2023/04/06 11:36:36;;;;;;;6.57;5.50;;;;;15.60;96512.00;;;;8243338;28;20213;-75
2023/04/06 11:40:39;;;;;;;7.93;5.90;;;;;15.70;96509.00;;;;8238060;28;20218;-74
2023/04/06 11:44:46;;;;;;;7.18;5.78;;;;;15.50;96501.00;;;;8251778;28;20218;-75
2023/04/06 11:48:58;;;;;;;8.32;6.40;;;;;16.00;96500.00;;;;8240386;28;20227;-75
2023/04/06 11:53:02;;;;;;;11.13;6.05;;;;;16.40;96495.00;;;;8229423;28;20717;-76
2023/04/06 11:57:06;;;;;;;7.05;5.13;;;;;16.20;96487.00;;;;8234164;28;20214;-77
2023/04/06 12:01:09;;;;;;;7.75;5.85;;;;;15.20;96495.00;;;;8236059;28;20230;-75
2023/04/06 12:05:16;;;;;;;7.35;5.15;;;;;14.60;96489.00;;;;8244915;28;20232;-77
2023/04/06 12:09:19;;;;;;;11.00;6.55;;;;;14.30;96477.00;;;;8233565;28;20928;-76
2023/04/06 12:13:24;;;;;;;10.32;6.50;;;;;13.70;96477.00;;;;8243344;28;20268;-76
2023/04/06 12:17:29;;;;;;;7.03;5.35;;;;;13.30;96469.00;;;;8223890;28;20305;-77
2023/04/06 12:21:36;;;;;;;9.10;5.75;;;;;13.00;96461.00;;;;8238626;28;20199;-76
2023/04/06 12:25:44;;;;;;;8.60;5.95;;;;;13.10;96466.00;;;;8231667;28;20252;-75
2023/04/06 12:29:51;;;;;;;9.95;6.18;;;;;13.20;96460.00;;;;8242903;28;20963;-76
2023/04/06 12:33:54;;;;;;;8.38;6.00;;;;;13.30;96465.00;;;;8216682;28;20302;-76
2023/04/06 12:38:01;;;;;;;8.02;5.57;;;;;13.30;96452.00;;;;8240889;28;20687;-76
2023/04/06 12:42:04;;;;;;;6.03;5.28;;;;;13.50;96450.00;;;;8241006;28;20207;-75
2023/04/06 12:46:07;;;;;;;7.45;5.00;;;;;13.80;96455.00;;;;8251196;28;20328;-73
2023/04/06 12:50:17;;;;;;;6.40;5.10;;;;;14.20;96457.00;;;;8239720;28;20234;-73
2023/04/06 12:54:22;;;;;;;11.98;5.57;;;;;14.30;96454.00;;;;8238565;28;20256;-75
2023/04/06 12:58:26;;;;;;;7.03;5.40;;;;;14.10;96438.00;;;;8243910;28;20211;-73
2023/04/06 13:02:30;;;;;;;9.68;5.72;;;;;14.10;96445.00;;;;8247973;28;20245;-71
2023/04/06 13:06:34;;;;;;;5.22;4.70;;;;;14.10;96445.00;;;;8254027;28;20226;-72
2023/04/06 13:10:43;;;;;;;7.68;5.18;;;;;14.10;96447.00;;;;8247040;28;20207;-70
2023/04/06 13:14:50;;;;;;;5.55;4.97;;;;;14.10;96444.00;;;;8235947;28;20295;-70
2023/04/06 13:18:56;;;;;;;5.88;5.13;;;;;14.00;96433.00;;;;8235680;28;20209;-71
2023/04/06 13:22:59;;;;;;;7.13;5.25;;;;;13.90;96435.00;;;;8251498;28;20248;-71
2023/04/06 13:27:03;;;;;;;5.40;4.82;;;;;14.00;96437.00;;;;8256301;28;20268;-71
2023/04/06 13:31:08;;;;;;;9.52;5.07;;;;;14.10;96428.00;;;;8243947;28;20203;-71
2023/04/06 13:35:13;;;;;;;8.05;5.63;;;;;14.20;96421.00;;;;8254533;28;20234;-71
2023/04/06 13:39:16;;;;;;;9.40;5.50;;;;;14.40;96423.00;;;;8242473;28;20233;-71
2023/04/06 13:43:20;;;;;;;8.05;5.32;;;;;14.50;96413.00;;;;8249570;28;20779;-71
2023/04/06 13:47:28;;;;;;;6.00;4.78;;;;;14.70;96421.00;;;;8251656;28;20300;-72
2023/04/06 13:51:31;;;;;;;7.75;5.20;;;;;15.20;96414.00;;;;8245844;28;20207;-71
2023/04/06 13:55:42;;;;;;;7.13;5.30;;;;;15.50;96408.00;;;;8260331;28;20210;-71
2023/04/06 13:59:46;;;;;;;5.78;5.13;;;;;15.40;96412.00;;;;8246088;28;20235;-71
2023/04/06 14:03:49;;;;;;;7.43;5.28;;;;;15.50;96406.00;;;;8242530;28;20230;-71
2023/04/06 14:07:52;;;;;;;7.45;5.15;;;;;16.10;96400.00;;;;8241459;28;20585;-71
2023/04/06 14:11:57;;;;;;;5.30;4.65;;;;;16.70;96399.00;;;;8236329;28;20206;-72
2023/04/06 14:16:02;;;;;;;5.57;4.95;;;;;17.10;96393.00;;;;8239005;28;20199;-71
2023/04/06 14:20:13;;;;;;;5.53;4.68;;;;;17.40;96395.00;;;;8248457;28;20598;-71
2023/04/06 14:24:26;;;;;;;9.02;4.80;;;;;17.80;96394.00;;;;8229128;28;20206;-72
2023/04/06 14:28:29;;;;;;;5.18;4.60;;;;;17.90;96390.00;;;;8251189;28;20626;-71
2023/04/06 14:32:33;;;;;;;9.32;5.43;;;;;17.60;96394.00;;;;8241514;28;20223;-71
2023/04/06 14:36:46;;;;;;;8.20;5.18;;;;;17.80;96395.00;;;;8247066;28;20207;-70
2023/04/06 14:40:52;;;;;;;6.53;5.20;;;;;17.50;96395.00;;;;8245751;28;20203;-71
2023/04/06 14:44:55;;;;;;;5.90;4.97;;;;;17.50;96393.00;;;;8243589;28;20230;-71
2023/04/06 14:49:03;;;;;;;8.30;5.80;;;;;17.60;96390.00;;;;8253530;28;20242;-72
2023/04/06 14:53:07;;;;;;;7.22;5.50;;;;;17.70;96380.00;;;;8248655;28;20204;-70
2023/04/06 14:57:10;;;;;;;8.75;5.32;;;;;17.40;96378.00;;;;8259642;28;20293;-71
2023/04/06 15:01:16;;;;;;;8.70;5.85;;;;;17.40;96371.00;;;;8240071;28;20595;-72
2023/04/06 15:05:20;;;;;;;8.23;6.00;;;;;17.20;96379.00;;;;8246226;28;20680;-72
2023/04/06 15:09:26;;;;;;;6.75;5.32;;;;;16.90;96376.00;;;;8238212;28;20745;-72
2023/04/06 15:13:33;;;;;;;8.85;5.15;;;;;16.90;96374.00;;;;8247340;28;20230;-72
2023/04/06 15:17:35;;;;;;;7.13;5.30;;;;;17.00;96369.00;;;;8246799;28;20235;-71
2023/04/06 15:21:44;;;;;;;5.57;5.07;;;;;17.00;96368.00;;;;8232298;28;20342;-72
2023/04/06 15:25:48;;;;;;;9.60;5.22;;;;;17.00;96369.00;;;;8242001;28;20225;-73
2023/04/06 15:29:51;;;;;;;6.75;5.50;;;;;17.10;96368.00;;;;8234887;28;20287;-71
2023/04/06 15:33:57;;;;;;;8.63;6.28;;;;;17.00;96369.00;;;;8222136;28;20282;-72
2023/04/06 15:38:02;;;;;;;6.57;5.18;;;;;17.10;96360.00;;;;8240598;28;20207;-72
2023/04/06 15:42:05;;;;;;;9.95;6.50;;;;;16.80;96372.00;;;;8242189;28;20203;-72
2023/04/06 15:46:12;;;;;;;12.63;6.10;;;;;16.50;96369.00;;;;8228475;28;20199;-71
2023/04/06 15:50:15;;;;;;;6.47;5.30;;;;;16.40;96374.00;;;;8250753;28;20242;-72
2023/04/06 15:54:22;;;;;;;5.75;5.15;;;;;16.40;96372.00;;;;8244007;28;20624;-72
2023/04/06 15:58:29;;;;;;;9.90;5.80;;;;;16.40;96374.00;;;;8241517;28;20243;-72
2023/04/06 16:02:37;;;;;;;6.05;5.45;;;;;16.50;96362.00;;;;8253499;28;20277;-71
2023/04/06 16:06:41;;;;;;;6.40;5.28;;;;;16.60;96368.00;;;;8237571;28;20200;-73
2023/04/06 16:10:45;;;;;;;7.88;5.88;;;;;16.80;96370.00;;;;8239197;28;20199;-72
2023/04/06 16:14:48;;;;;;;7.93;6.07;;;;;17.00;96366.00;;;;8245775;28;20204;-73
2023/04/06 16:18:53;;;;;;;10.23;6.20;;;;;17.00;96364.00;;;;8237208;28;20197;-73
2023/04/06 16:22:56;;;;;;;7.88;5.90;;;;;17.30;96376.00;;;;8247492;28;20238;-72
2023/04/06 16:27:00;;;;;;;7.03;6.25;;;;;17.70;96379.00;;;;8234124;28;20253;-72
2023/04/06 16:31:03;;;;;;;7.45;6.03;;;;;17.90;96376.00;;;;8234180;28;20231;-73
2023/04/06 16:35:07;;;;;;;6.45;5.72;;;;;18.00;96375.00;;;;8241583;28;20704;-73
2023/04/06 16:39:15;;;;;;;10.18;6.60;;;;;18.20;96372.00;;;;8247598;28;20203;-73
2023/04/06 16:43:24;;;;;;;6.10;5.50;;;;;18.10;96371.00;;;;8251745;28;20219;-73
2023/04/06 16:47:27;;;;;;;8.27;6.25;;;;;17.80;96378.00;;;;8252308;28;20226;-73
2023/04/06 16:51:31;;;;;;;6.95;5.50;;;;;17.20;96371.00;;;;8259331;28;20533;-73
2023/04/06 16:55:38;;;;;;;8.40;6.32;;;;;16.20;96370.00;;;;8248457;28;21501;-73
2023/04/06 16:59:44;;;;;;;9.68;7.15;;;;;15.40;96367.00;;;;8255615;28;20202;-73
2023/04/06 17:03:48;;;;;;;11.18;6.80;;;;;14.70;96371.00;;;;8256786;28;20615;-73
2023/04/06 17:07:52;;;;;;;10.20;6.95;;;;;14.00;96364.00;;;;8254601;28;21028;-72
2023/04/06 17:11:56;;;;;;;13.07;7.18;;;;;13.40;96368.00;;;;8255870;28;20199;-71
2023/04/06 17:16:02;;;;;;;11.73;6.68;;;;;13.00;96362.00;;;;8253689;28;20209;-73
2023/04/06 17:20:07;;;;;;;9.82;7.25;;;;;12.60;96362.00;;;;8256710;28;20225;-73
2023/04/06 17:24:10;;;;;;;7.25;6.32;;;;;12.10;96361.00;;;;8254074;28;20212;-73
2023/04/06 17:28:13;;;;;;;9.70;6.10;;;;;11.60;96365.00;;;;8258020;28;20281;-74
2023/04/06 17:32:22;;;;;;;10.48;6.63;;;;;11.00;96360.00;;;;8253025;28;20230;-72
2023/04/06 17:36:26;;;;;;;11.75;6.55;;;;;10.50;96368.00;;;;8246932;28;20199;-73
2023/04/06 17:40:31;;;;;;;9.13;6.55;;;;;9.90;96364.00;;;;8254100;28;20200;-74
2023/04/06 17:44:39;;;;;;;9.00;6.80;;;;;9.40;96359.00;;;;8245673;28;20196;-72
2023/04/06 17:48:45;;;;;;;9.88;6.65;;;;;9.00;96375.00;;;;8242049;28;20222;-74
2023/04/06 17:52:52;;;;;;;9.73;6.67;;;;;8.50;96365.00;;;;8247477;28;20782;-73
2023/04/06 17:56:59;;;;;;;12.23;7.27;;;;;8.10;96373.00;;;;8258132;28;20289;-72
2023/04/06 18:01:05;;;;;;;11.90;6.80;;;;;7.70;96376.00;;;;8254251;28;20207;-72
2023/04/06 18:05:15;;;;;;;9.27;6.40;;;;;7.50;96376.00;;;;8253808;28;20903;-73
2023/04/06 18:09:20;;;;;;;10.27;6.80;;;;;7.20;96384.00;;;;8244613;28;20265;-72
2023/04/06 18:13:22;;;;;;;11.43;6.77;;;;;6.90;96386.00;;;;8235591;28;20203;-73
2023/04/06 18:17:25;;;;;;;10.87;6.53;;;;;6.60;96386.00;;;;8240271;28;20716;-73
2023/04/06 18:21:30;;;;;;;11.50;7.60;;;;;6.40;96387.00;;;;8246229;28;20554;-72
2023/04/06 18:25:38;;;;;;;15.53;7.30;;;;;6.10;96384.00;;;;8244136;28;20796;-71
2023/04/06 18:29:43;;;;;;;12.53;6.47;;;;;5.90;96380.00;;;;8239411;28;20238;-74
2023/04/06 18:33:46;;;;;;;13.33;7.47;;;;;5.70;96385.00;;;;8249456;28;20205;-72
2023/04/06 18:37:52;;;;;;;12.70;7.70;;;;;5.50;96384.00;;;;8238231;28;20195;-73
2023/04/06 18:41:58;;;;;;;12.47;7.20;;;;;5.30;96389.00;;;;8243106;28;20676;-71
2023/04/06 18:46:01;;;;;;;11.93;7.77;;;;;5.20;96385.00;;;;8242625;28;20206;-72
2023/04/06 18:50:04;;;;;;;17.43;8.83;;;;;5.10;96384.00;;;;8247946;28;20304;-72
2023/04/06 18:54:14;;;;;;;21.77;8.90;;;;;5.00;96387.00;;;;8242601;28;20533;-72
2023/04/06 18:58:18;;;;;;;15.47;8.60;;;;;5.00;96397.00;;;;8240563;28;20206;-72
2023/04/06 19:02:21;;;;;;;16.30;8.87;;;;;5.10;96394.00;;;;8253119;28;20242;-72
2023/04/06 19:06:27;;;;;;;13.23;8.07;;;;;5.00;96402.00;;;;8246158;28;20256;-70
2023/04/06 19:10:39;;;;;;;14.10;8.57;;;;;4.90;96411.00;;;;8247731;28;20233;-71
2023/04/06 19:14:50;;;;;;;20.57;9.97;;;;;4.70;96406.00;;;;8247817;28;20222;-71
2023/04/06 19:18:53;;;;;;;15.40;8.80;;;;;4.50;96417.00;;;;8238269;28;20201;-71
2023/04/06 19:22:59;;;;;;;18.93;9.70;;;;;4.20;96405.00;;;;8243517;28;20207;-71
2023/04/06 19:27:03;;;;;;;17.47;9.37;;;;;4.00;96411.00;;;;8243164;28;20710;-72
2023/04/06 19:31:09;;;;;;;20.33;10.93;;;;;3.80;96403.00;;;;8248546;28;20264;-73
2023/04/06 19:35:12;;;;;;;20.33;11.17;;;;;3.60;96410.00;;;;8242933;28;20212;-73
2023/04/06 19:39:15;;;;;;;25.93;12.33;;;;;3.50;96401.00;;;;8241128;28;20197;-73
2023/04/06 19:43:20;;;;;;;21.33;11.67;;;;;3.40;96400.00;;;;8240384;28;20208;-73
2023/04/06 19:47:23;;;;;;;26.07;11.33;;;;;3.20;96399.00;;;;8246072;28;21024;-72
2023/04/06 19:51:26;;;;;;;25.93;11.67;;;;;3.10;96412.00;;;;8245063;28;20227;-73
2023/04/06 19:55:29;;;;;;;19.50;10.73;;;;;3.10;96404.00;;;;8243318;28;20195;-73
2023/04/06 19:59:34;;;;;;;25.83;11.90;;;;;3.00;96390.00;;;;8244407;28;20230;-73
2023/04/06 20:03:37;;;;;;;21.20;11.07;;;;;2.90;96395.00;;;;8250880;28;20941;-73
2023/04/06 20:07:41;;;;;;;20.77;10.40;;;;;2.80;96394.00;;;;8243410;28;20252;-73
2023/04/06 20:11:47;;;;;;;18.93;10.60;;;;;2.70;96395.00;;;;8245864;28;20320;-73
2023/04/06 20:15:52;;;;;;;22.23;10.33;;;;;2.60;96395.00;;;;8231133;28;20212;-73
2023/04/06 20:19:54;;;;;;;14.33;9.27;;;;;2.40;96394.00;;;;8240291;28;20294;-73
2023/04/06 20:23:57;;;;;;;14.97;8.77;;;;;2.40;96392.00;;;;8230978;28;20230;-73